sensor_id;sensor_type;location;lat;lon;timestamp;P1;durP1;ratioP1;P2;durP2;ratioP2
31284;SDS011;56605;51.516;6.742;2023-02-15T00:01:09;38.78;;;18.15;;
31284;SDS011;56605;51.516;6.742;2023-02-15T00:03:34;35.15;;;16.08;;
31284;SDS011;56605;51.516;6.742;2023-02-15T00:06:00;33.10;;;16.55;;
31284;SDS011;56605;51.516;6.742;2023-02-15T00:08:25;31.60;;;16.42;;
31284;SDS011;56605;51.516;6.742;2023-02-15T00:10:50;32.58;;;16.33;;
31284;SDS011;56605;51.516;6.742;2023-02-15T00:13:15;37.42;;;16.88;;
31284;SDS011;56605;51.516;6.742;2023-02-15T00:15:41;33.83;;;16.42;;
31284;SDS011;56605;51.516;6.742;2023-02-15T00:18:06;29.20;;;15.93;;
31284;SDS011;56605;51.516;6.742;2023-02-15T00:20:31;34.78;;;17.77;;
31284;SDS011;56605;51.516;6.742;2023-02-15T00:22:56;32.47;;;15.93;;
31284;SDS011;56605;51.516;6.742;2023-02-15T00:25:21;34.55;;;16.60;;
31284;SDS011;56605;51.516;6.742;2023-02-15T00:27:47;32.05;;;15.80;;
31284;SDS011;56605;51.516;6.742;2023-02-15T00:30:12;34.85;;;17.30;;
31284;SDS011;56605;51.516;6.742;2023-02-15T00:32:37;34.25;;;17.52;;
31284;SDS011;56605;51.516;6.742;2023-02-15T00:35:02;35.75;;;17.42;;
31284;SDS011;56605;51.516;6.742;2023-02-15T00:37:27;33.35;;;16.33;;
31284;SDS011;56605;51.516;6.742;2023-02-15T00:39:53;33.35;;;15.75;;
31284;SDS011;56605;51.516;6.742;2023-02-15T00:42:18;33.38;;;16.67;;
31284;SDS011;56605;51.516;6.742;2023-02-15T00:44:43;32.65;;;16.70;;
31284;SDS011;56605;51.516;6.742;2023-02-15T00:47:08;33.97;;;17.80;;
31284;SDS011;56605;51.516;6.742;2023-02-15T00:49:33;38.23;;;16.47;;
31284;SDS011;56605;51.516;6.742;2023-02-15T00:51:58;36.93;;;17.20;;
31284;SDS011;56605;51.516;6.742;2023-02-15T00:54:24;33.33;;;16.17;;
31284;SDS011;56605;51.516;6.742;2023-02-15T00:56:49;34.90;;;16.73;;
31284;SDS011;56605;51.516;6.742;2023-02-15T00:59:14;34.67;;;17.10;;
31284;SDS011;56605;51.516;6.742;2023-02-15T01:01:39;35.33;;;16.77;;
31284;SDS011;56605;51.516;6.742;2023-02-15T01:04:04;35.53;;;16.40;;
31284;SDS011;56605;51.516;6.742;2023-02-15T01:06:30;34.70;;;17.90;;
31284;SDS011;56605;51.516;6.742;2023-02-15T01:08:55;36.08;;;17.92;;
31284;SDS011;56605;51.516;6.742;2023-02-15T01:11:21;40.53;;;18.95;;
31284;SDS011;56605;51.516;6.742;2023-02-15T01:13:53;37.35;;;17.83;;
31284;SDS011;56605;51.516;6.742;2023-02-15T01:16:18;37.70;;;17.73;;
31284;SDS011;56605;51.516;6.742;2023-02-15T01:18:44;35.40;;;17.73;;
31284;SDS011;56605;51.516;6.742;2023-02-15T01:21:10;38.65;;;17.00;;
31284;SDS011;56605;51.516;6.742;2023-02-15T01:23:35;37.85;;;17.13;;
31284;SDS011;56605;51.516;6.742;2023-02-15T01:26:02;34.00;;;17.70;;
31284;SDS011;56605;51.516;6.742;2023-02-15T01:28:27;36.13;;;17.00;;
31284;SDS011;56605;51.516;6.742;2023-02-15T01:30:52;37.15;;;17.45;;
31284;SDS011;56605;51.516;6.742;2023-02-15T01:33:18;37.10;;;17.67;;
31284;SDS011;56605;51.516;6.742;2023-02-15T01:35:44;34.77;;;17.50;;
31284;SDS011;56605;51.516;6.742;2023-02-15T01:38:09;40.70;;;18.70;;
31284;SDS011;56605;51.516;6.742;2023-02-15T01:40:34;42.87;;;18.87;;
31284;SDS011;56605;51.516;6.742;2023-02-15T01:42:59;43.07;;;18.93;;
31284;SDS011;56605;51.516;6.742;2023-02-15T01:45:26;40.83;;;18.50;;
31284;SDS011;56605;51.516;6.742;2023-02-15T01:47:52;45.83;;;19.47;;
31284;SDS011;56605;51.516;6.742;2023-02-15T01:50:29;39.05;;;18.88;;
31284;SDS011;56605;51.516;6.742;2023-02-15T01:52:57;37.90;;;18.37;;
31284;SDS011;56605;51.516;6.742;2023-02-15T01:55:24;42.60;;;18.13;;
31284;SDS011;56605;51.516;6.742;2023-02-15T01:57:49;36.67;;;18.67;;
31284;SDS011;56605;51.516;6.742;2023-02-15T02:00:15;41.10;;;17.93;;
31284;SDS011;56605;51.516;6.742;2023-02-15T02:02:42;40.43;;;17.53;;
31284;SDS011;56605;51.516;6.742;2023-02-15T02:05:08;32.97;;;16.73;;
31284;SDS011;56605;51.516;6.742;2023-02-15T02:07:41;39.80;;;18.60;;
31284;SDS011;56605;51.516;6.742;2023-02-15T02:10:07;35.70;;;16.77;;
31284;SDS011;56605;51.516;6.742;2023-02-15T02:12:33;43.30;;;18.67;;
31284;SDS011;56605;51.516;6.742;2023-02-15T02:14:59;44.57;;;18.27;;
31284;SDS011;56605;51.516;6.742;2023-02-15T02:20:14;37.03;;;18.13;;
31284;SDS011;56605;51.516;6.742;2023-02-15T02:25:30;41.20;;;19.90;;
31284;SDS011;56605;51.516;6.742;2023-02-15T02:30:56;38.47;;;17.33;;
31284;SDS011;56605;51.516;6.742;2023-02-15T02:33:49;47.63;;;20.50;;
31284;SDS011;56605;51.516;6.742;2023-02-15T02:39:08;43.60;;;19.67;;
31284;SDS011;56605;51.516;6.742;2023-02-15T02:41:52;41.50;;;20.00;;
31284;SDS011;56605;51.516;6.742;2023-02-15T02:44:22;40.63;;;18.53;;
31284;SDS011;56605;51.516;6.742;2023-02-15T02:46:52;40.33;;;19.20;;
31284;SDS011;56605;51.516;6.742;2023-02-15T02:49:31;38.83;;;18.90;;
31284;SDS011;56605;51.516;6.742;2023-02-15T02:52:01;40.87;;;20.20;;
31284;SDS011;56605;51.516;6.742;2023-02-15T02:54:27;48.03;;;19.57;;
31284;SDS011;56605;51.516;6.742;2023-02-15T02:56:52;35.70;;;18.37;;
31284;SDS011;56605;51.516;6.742;2023-02-15T02:59:27;44.27;;;19.60;;
31284;SDS011;56605;51.516;6.742;2023-02-15T03:04:27;39.80;;;18.50;;
31284;SDS011;56605;51.516;6.742;2023-02-15T03:06:55;40.13;;;18.90;;
31284;SDS011;56605;51.516;6.742;2023-02-15T03:09:24;41.80;;;18.60;;
31284;SDS011;56605;51.516;6.742;2023-02-15T03:11:59;36.70;;;18.13;;
31284;SDS011;56605;51.516;6.742;2023-02-15T03:14:24;43.67;;;19.70;;
31284;SDS011;56605;51.516;6.742;2023-02-15T03:16:49;43.33;;;20.27;;
31284;SDS011;56605;51.516;6.742;2023-02-15T03:19:23;38.90;;;19.13;;
31284;SDS011;56605;51.516;6.742;2023-02-15T03:21:50;41.87;;;19.47;;
31284;SDS011;56605;51.516;6.742;2023-02-15T03:24:23;47.50;;;20.43;;
31284;SDS011;56605;51.516;6.742;2023-02-15T03:26:50;43.23;;;19.63;;
31284;SDS011;56605;51.516;6.742;2023-02-15T03:29:17;45.33;;;19.23;;
31284;SDS011;56605;51.516;6.742;2023-02-15T03:31:44;37.73;;;18.43;;
31284;SDS011;56605;51.516;6.742;2023-02-15T03:34:11;46.70;;;20.20;;
31284;SDS011;56605;51.516;6.742;2023-02-15T03:39:40;43.97;;;20.67;;
31284;SDS011;56605;51.516;6.742;2023-02-15T03:44:33;41.33;;;20.70;;
31284;SDS011;56605;51.516;6.742;2023-02-15T03:47:03;43.47;;;19.87;;
31284;SDS011;56605;51.516;6.742;2023-02-15T03:49:36;44.27;;;19.30;;
31284;SDS011;56605;51.516;6.742;2023-02-15T03:52:04;41.07;;;19.47;;
31284;SDS011;56605;51.516;6.742;2023-02-15T03:54:30;46.77;;;19.90;;
31284;SDS011;56605;51.516;6.742;2023-02-15T03:57:10;44.67;;;20.30;;
31284;SDS011;56605;51.516;6.742;2023-02-15T03:59:54;44.17;;;20.33;;
31284;SDS011;56605;51.516;6.742;2023-02-15T04:02:40;44.67;;;19.47;;
31284;SDS011;56605;51.516;6.742;2023-02-15T04:05:09;38.97;;;18.93;;
31284;SDS011;56605;51.516;6.742;2023-02-15T04:07:35;42.33;;;20.60;;
31284;SDS011;56605;51.516;6.742;2023-02-15T04:10:00;48.80;;;20.03;;
31284;SDS011;56605;51.516;6.742;2023-02-15T04:12:44;51.03;;;20.43;;
31284;SDS011;56605;51.516;6.742;2023-02-15T04:15:11;46.20;;;21.43;;
31284;SDS011;56605;51.516;6.742;2023-02-15T04:17:55;52.73;;;21.17;;
31284;SDS011;56605;51.516;6.742;2023-02-15T04:20:21;53.57;;;24.03;;
31284;SDS011;56605;51.516;6.742;2023-02-15T04:23:08;40.80;;;20.20;;
31284;SDS011;56605;51.516;6.742;2023-02-15T04:25:51;50.53;;;21.70;;
31284;SDS011;56605;51.516;6.742;2023-02-15T04:28:17;49.47;;;22.47;;
31284;SDS011;56605;51.516;6.742;2023-02-15T04:30:42;42.67;;;20.63;;
31284;SDS011;56605;51.516;6.742;2023-02-15T04:33:07;44.00;;;21.90;;
31284;SDS011;56605;51.516;6.742;2023-02-15T04:35:32;48.73;;;22.13;;
31284;SDS011;56605;51.516;6.742;2023-02-15T04:38:01;46.20;;;21.47;;
31284;SDS011;56605;51.516;6.742;2023-02-15T04:40:26;49.40;;;21.13;;
31284;SDS011;56605;51.516;6.742;2023-02-15T04:42:52;44.40;;;21.80;;
31284;SDS011;56605;51.516;6.742;2023-02-15T04:45:17;39.23;;;19.90;;
31284;SDS011;56605;51.516;6.742;2023-02-15T04:47:42;45.10;;;21.20;;
31284;SDS011;56605;51.516;6.742;2023-02-15T04:50:08;43.97;;;21.00;;
31284;SDS011;56605;51.516;6.742;2023-02-15T04:52:33;52.03;;;20.27;;
31284;SDS011;56605;51.516;6.742;2023-02-15T04:54:58;43.37;;;19.73;;
31284;SDS011;56605;51.516;6.742;2023-02-15T04:57:23;44.73;;;20.63;;
31284;SDS011;56605;51.516;6.742;2023-02-15T04:59:48;42.70;;;19.70;;
31284;SDS011;56605;51.516;6.742;2023-02-15T05:02:14;39.13;;;19.90;;
31284;SDS011;56605;51.516;6.742;2023-02-15T05:04:39;39.00;;;18.70;;
31284;SDS011;56605;51.516;6.742;2023-02-15T05:07:04;47.73;;;20.00;;
31284;SDS011;56605;51.516;6.742;2023-02-15T05:09:29;43.87;;;20.13;;
31284;SDS011;56605;51.516;6.742;2023-02-15T05:11:55;48.80;;;20.50;;
31284;SDS011;56605;51.516;6.742;2023-02-15T05:14:20;47.07;;;20.10;;
31284;SDS011;56605;51.516;6.742;2023-02-15T05:16:45;42.13;;;20.00;;
31284;SDS011;56605;51.516;6.742;2023-02-15T05:19:10;44.90;;;19.80;;
31284;SDS011;56605;51.516;6.742;2023-02-15T05:21:36;41.90;;;20.33;;
31284;SDS011;56605;51.516;6.742;2023-02-15T05:24:01;40.57;;;19.63;;
31284;SDS011;56605;51.516;6.742;2023-02-15T05:26:46;46.03;;;19.17;;
31284;SDS011;56605;51.516;6.742;2023-02-15T05:29:30;40.90;;;18.47;;
31284;SDS011;56605;51.516;6.742;2023-02-15T05:31:55;37.77;;;17.63;;
31284;SDS011;56605;51.516;6.742;2023-02-15T05:34:21;35.77;;;17.27;;
31284;SDS011;56605;51.516;6.742;2023-02-15T05:36:46;34.20;;;15.80;;
31284;SDS011;56605;51.516;6.742;2023-02-15T05:39:11;44.53;;;18.97;;
31284;SDS011;56605;51.516;6.742;2023-02-15T05:41:36;39.43;;;19.40;;
31284;SDS011;56605;51.516;6.742;2023-02-15T05:44:01;25.73;;;11.57;;
31284;SDS011;56605;51.516;6.742;2023-02-15T05:46:26;47.53;;;20.20;;
31284;SDS011;56605;51.516;6.742;2023-02-15T05:48:51;41.93;;;17.60;;
31284;SDS011;56605;51.516;6.742;2023-02-15T05:51:17;38.90;;;18.70;;
31284;SDS011;56605;51.516;6.742;2023-02-15T05:53:42;41.63;;;19.00;;
31284;SDS011;56605;51.516;6.742;2023-02-15T05:56:08;48.77;;;18.90;;
31284;SDS011;56605;51.516;6.742;2023-02-15T05:58:37;43.17;;;19.73;;
31284;SDS011;56605;51.516;6.742;2023-02-15T06:03:38;46.93;;;19.53;;
31284;SDS011;56605;51.516;6.742;2023-02-15T06:06:03;35.77;;;17.73;;
31284;SDS011;56605;51.516;6.742;2023-02-15T06:08:29;38.80;;;19.37;;
31284;SDS011;56605;51.516;6.742;2023-02-15T06:10:55;40.17;;;18.93;;
31284;SDS011;56605;51.516;6.742;2023-02-15T06:13:20;44.43;;;18.47;;
31284;SDS011;56605;51.516;6.742;2023-02-15T06:15:46;33.93;;;17.97;;
31284;SDS011;56605;51.516;6.742;2023-02-15T06:18:11;48.33;;;18.97;;
31284;SDS011;56605;51.516;6.742;2023-02-15T06:20:36;45.37;;;20.07;;
31284;SDS011;56605;51.516;6.742;2023-02-15T06:23:01;42.60;;;19.30;;
31284;SDS011;56605;51.516;6.742;2023-02-15T06:25:26;40.00;;;18.33;;
31284;SDS011;56605;51.516;6.742;2023-02-15T06:27:52;44.77;;;18.63;;
31284;SDS011;56605;51.516;6.742;2023-02-15T06:30:17;41.33;;;18.63;;
31284;SDS011;56605;51.516;6.742;2023-02-15T06:32:42;40.97;;;20.13;;
31284;SDS011;56605;51.516;6.742;2023-02-15T06:35:07;42.67;;;19.63;;
31284;SDS011;56605;51.516;6.742;2023-02-15T06:37:33;43.00;;;18.60;;
31284;SDS011;56605;51.516;6.742;2023-02-15T06:39:58;35.33;;;17.00;;
31284;SDS011;56605;51.516;6.742;2023-02-15T06:42:23;40.07;;;18.03;;
31284;SDS011;56605;51.516;6.742;2023-02-15T06:44:48;41.40;;;18.10;;
31284;SDS011;56605;51.516;6.742;2023-02-15T06:47:13;44.93;;;19.60;;
31284;SDS011;56605;51.516;6.742;2023-02-15T06:49:39;51.23;;;18.40;;
31284;SDS011;56605;51.516;6.742;2023-02-15T06:52:04;41.50;;;20.10;;
31284;SDS011;56605;51.516;6.742;2023-02-15T06:54:29;40.57;;;18.60;;
31284;SDS011;56605;51.516;6.742;2023-02-15T06:56:54;41.30;;;19.27;;
31284;SDS011;56605;51.516;6.742;2023-02-15T06:59:20;49.03;;;20.37;;
31284;SDS011;56605;51.516;6.742;2023-02-15T07:01:45;45.53;;;18.80;;
31284;SDS011;56605;51.516;6.742;2023-02-15T07:04:10;49.20;;;21.53;;
31284;SDS011;56605;51.516;6.742;2023-02-15T07:06:35;54.53;;;20.60;;
31284;SDS011;56605;51.516;6.742;2023-02-15T07:09:01;46.97;;;21.87;;
31284;SDS011;56605;51.516;6.742;2023-02-15T07:11:26;52.67;;;22.67;;
31284;SDS011;56605;51.516;6.742;2023-02-15T07:14:10;52.67;;;21.87;;
31284;SDS011;56605;51.516;6.742;2023-02-15T07:16:35;70.87;;;25.63;;
31284;SDS011;56605;51.516;6.742;2023-02-15T07:19:01;53.17;;;21.73;;
31284;SDS011;56605;51.516;6.742;2023-02-15T07:21:26;49.27;;;19.70;;
31284;SDS011;56605;51.516;6.742;2023-02-15T07:23:52;42.40;;;18.73;;
31284;SDS011;56605;51.516;6.742;2023-02-15T07:26:17;45.87;;;20.03;;
31284;SDS011;56605;51.516;6.742;2023-02-15T07:28:42;49.83;;;18.40;;
31284;SDS011;56605;51.516;6.742;2023-02-15T07:31:08;45.20;;;18.33;;
31284;SDS011;56605;51.516;6.742;2023-02-15T07:33:33;38.67;;;16.30;;
31284;SDS011;56605;51.516;6.742;2023-02-15T07:35:59;38.07;;;15.57;;
31284;SDS011;56605;51.516;6.742;2023-02-15T07:38:26;38.27;;;17.53;;
31284;SDS011;56605;51.516;6.742;2023-02-15T07:40:56;42.30;;;17.63;;
31284;SDS011;56605;51.516;6.742;2023-02-15T07:43:22;41.50;;;17.10;;
31284;SDS011;56605;51.516;6.742;2023-02-15T07:45:47;41.20;;;17.33;;
31284;SDS011;56605;51.516;6.742;2023-02-15T07:48:12;33.80;;;15.70;;
31284;SDS011;56605;51.516;6.742;2023-02-15T07:50:37;35.60;;;15.97;;
31284;SDS011;56605;51.516;6.742;2023-02-15T07:53:02;36.73;;;16.20;;
31284;SDS011;56605;51.516;6.742;2023-02-15T07:55:28;30.97;;;16.40;;
31284;SDS011;56605;51.516;6.742;2023-02-15T07:57:53;41.70;;;16.73;;
31284;SDS011;56605;51.516;6.742;2023-02-15T08:00:22;36.27;;;17.10;;
31284;SDS011;56605;51.516;6.742;2023-02-15T08:02:53;34.70;;;16.97;;
31284;SDS011;56605;51.516;6.742;2023-02-15T08:05:37;35.27;;;16.50;;
31284;SDS011;56605;51.516;6.742;2023-02-15T08:08:03;34.03;;;15.67;;
31284;SDS011;56605;51.516;6.742;2023-02-15T08:10:28;31.17;;;16.37;;
31284;SDS011;56605;51.516;6.742;2023-02-15T08:13:12;42.60;;;17.13;;
31284;SDS011;56605;51.516;6.742;2023-02-15T08:15:37;29.40;;;15.30;;
31284;SDS011;56605;51.516;6.742;2023-02-15T08:18:02;33.17;;;16.20;;
31284;SDS011;56605;51.516;6.742;2023-02-15T08:20:28;28.67;;;14.97;;
31284;SDS011;56605;51.516;6.742;2023-02-15T08:22:53;29.73;;;15.73;;
31284;SDS011;56605;51.516;6.742;2023-02-15T08:25:18;33.13;;;14.95;;
31284;SDS011;56605;51.516;6.742;2023-02-15T08:27:43;32.77;;;15.53;;
31284;SDS011;56605;51.516;6.742;2023-02-15T08:30:08;37.80;;;16.45;;
31284;SDS011;56605;51.516;6.742;2023-02-15T08:32:34;30.85;;;16.67;;
31284;SDS011;56605;51.516;6.742;2023-02-15T08:34:59;36.03;;;16.17;;
31284;SDS011;56605;51.516;6.742;2023-02-15T08:37:24;30.08;;;14.57;;
31284;SDS011;56605;51.516;6.742;2023-02-15T08:39:50;33.67;;;16.17;;
31284;SDS011;56605;51.516;6.742;2023-02-15T08:42:16;39.83;;;16.52;;
31284;SDS011;56605;51.516;6.742;2023-02-15T08:44:41;37.37;;;16.73;;
31284;SDS011;56605;51.516;6.742;2023-02-15T08:47:06;28.98;;;12.30;;
31284;SDS011;56605;51.516;6.742;2023-02-15T08:49:32;35.38;;;15.75;;
31284;SDS011;56605;51.516;6.742;2023-02-15T08:51:57;31.13;;;16.10;;
31284;SDS011;56605;51.516;6.742;2023-02-15T08:54:22;34.08;;;15.43;;
31284;SDS011;56605;51.516;6.742;2023-02-15T08:56:47;29.77;;;14.15;;
31284;SDS011;56605;51.516;6.742;2023-02-15T08:59:14;36.25;;;16.02;;
31284;SDS011;56605;51.516;6.742;2023-02-15T09:01:40;26.35;;;14.20;;
31284;SDS011;56605;51.516;6.742;2023-02-15T09:04:06;31.60;;;16.00;;
31284;SDS011;56605;51.516;6.742;2023-02-15T09:06:35;32.33;;;15.25;;
31284;SDS011;56605;51.516;6.742;2023-02-15T09:09:00;22.25;;;11.25;;
31284;SDS011;56605;51.516;6.742;2023-02-15T09:11:26;29.25;;;13.82;;
31284;SDS011;56605;51.516;6.742;2023-02-15T09:13:53;38.15;;;15.70;;
31284;SDS011;56605;51.516;6.742;2023-02-15T09:16:18;29.95;;;14.73;;
31284;SDS011;56605;51.516;6.742;2023-02-15T09:18:44;32.13;;;15.77;;
31284;SDS011;56605;51.516;6.742;2023-02-15T09:21:13;32.25;;;14.27;;
31284;SDS011;56605;51.516;6.742;2023-02-15T09:23:38;36.50;;;14.18;;
31284;SDS011;56605;51.516;6.742;2023-02-15T09:26:04;33.55;;;14.75;;
31284;SDS011;56605;51.516;6.742;2023-02-15T09:28:30;32.95;;;15.43;;
31284;SDS011;56605;51.516;6.742;2023-02-15T09:30:57;44.97;;;17.52;;
31284;SDS011;56605;51.516;6.742;2023-02-15T09:33:29;34.67;;;16.15;;
31284;SDS011;56605;51.516;6.742;2023-02-15T09:35:54;32.63;;;13.53;;
31284;SDS011;56605;51.516;6.742;2023-02-15T09:38:19;28.65;;;15.35;;
31284;SDS011;56605;51.516;6.742;2023-02-15T09:40:49;36.15;;;16.45;;
31284;SDS011;56605;51.516;6.742;2023-02-15T09:43:27;37.58;;;16.55;;
31284;SDS011;56605;51.516;6.742;2023-02-15T09:46:03;32.22;;;14.25;;
31284;SDS011;56605;51.516;6.742;2023-02-15T09:51:05;30.17;;;13.88;;
31284;SDS011;56605;51.516;6.742;2023-02-15T10:03:33;31.33;;;16.00;;
31284;SDS011;56605;51.516;6.742;2023-02-15T10:26:51;27.67;;;12.68;;
31284;SDS011;56605;51.516;6.742;2023-02-15T10:29:35;28.13;;;13.40;;
31284;SDS011;56605;51.516;6.742;2023-02-15T10:34:39;26.65;;;12.50;;
31284;SDS011;56605;51.516;6.742;2023-02-15T10:37:21;31.65;;;13.40;;
31284;SDS011;56605;51.516;6.742;2023-02-15T10:48:03;30.17;;;14.38;;
31284;SDS011;56605;51.516;6.742;2023-02-15T10:53:26;33.88;;;15.50;;
31284;SDS011;56605;51.516;6.742;2023-02-15T10:56:03;27.92;;;13.50;;
31284;SDS011;56605;51.516;6.742;2023-02-15T11:06:43;37.45;;;15.02;;
31284;SDS011;56605;51.516;6.742;2023-02-15T11:09:13;35.97;;;14.18;;
31284;SDS011;56605;51.516;6.742;2023-02-15T11:11:44;29.33;;;14.38;;
31284;SDS011;56605;51.516;6.742;2023-02-15T11:16:38;31.88;;;14.63;;
31284;SDS011;56605;51.516;6.742;2023-02-15T11:19:06;35.25;;;16.10;;
31284;SDS011;56605;51.516;6.742;2023-02-15T11:21:34;33.58;;;14.30;;
31284;SDS011;56605;51.516;6.742;2023-02-15T11:24:14;45.55;;;16.23;;
31284;SDS011;56605;51.516;6.742;2023-02-15T11:26:43;39.67;;;15.18;;
31284;SDS011;56605;51.516;6.742;2023-02-15T11:31:46;31.45;;;15.35;;
31284;SDS011;56605;51.516;6.742;2023-02-15T11:34:20;35.83;;;15.50;;
31284;SDS011;56605;51.516;6.742;2023-02-15T11:36:48;30.45;;;15.07;;
31284;SDS011;56605;51.516;6.742;2023-02-15T11:39:15;35.17;;;16.40;;
31284;SDS011;56605;51.516;6.742;2023-02-15T11:41:41;33.10;;;15.00;;
31284;SDS011;56605;51.516;6.742;2023-02-15T11:47:07;44.25;;;16.30;;
31284;SDS011;56605;51.516;6.742;2023-02-15T11:49:34;32.30;;;14.68;;
31284;SDS011;56605;51.516;6.742;2023-02-15T11:52:00;33.80;;;15.55;;
31284;SDS011;56605;51.516;6.742;2023-02-15T11:54:30;34.50;;;15.25;;
31284;SDS011;56605;51.516;6.742;2023-02-15T11:56:59;32.72;;;15.15;;
31284;SDS011;56605;51.516;6.742;2023-02-15T11:59:31;26.38;;;14.13;;
31284;SDS011;56605;51.516;6.742;2023-02-15T12:01:57;24.65;;;12.43;;
31284;SDS011;56605;51.516;6.742;2023-02-15T12:12:21;29.45;;;15.20;;
31284;SDS011;56605;51.516;6.742;2023-02-15T12:14:49;26.63;;;14.63;;
31284;SDS011;56605;51.516;6.742;2023-02-15T12:17:14;30.05;;;14.43;;
31284;SDS011;56605;51.516;6.742;2023-02-15T12:19:40;26.92;;;14.40;;
31284;SDS011;56605;51.516;6.742;2023-02-15T12:22:16;33.78;;;15.25;;
31284;SDS011;56605;51.516;6.742;2023-02-15T12:24:46;35.05;;;16.33;;
31284;SDS011;56605;51.516;6.742;2023-02-15T12:27:19;40.70;;;17.92;;
31284;SDS011;56605;51.516;6.742;2023-02-15T12:29:47;34.15;;;15.90;;
31284;SDS011;56605;51.516;6.742;2023-02-15T12:32:24;29.58;;;15.57;;
31284;SDS011;56605;51.516;6.742;2023-02-15T12:34:50;35.35;;;14.27;;
31284;SDS011;56605;51.516;6.742;2023-02-15T12:37:17;29.33;;;14.70;;
31284;SDS011;56605;51.516;6.742;2023-02-15T12:39:50;30.35;;;13.85;;
31284;SDS011;56605;51.516;6.742;2023-02-15T12:42:16;29.88;;;12.80;;
31284;SDS011;56605;51.516;6.742;2023-02-15T12:44:52;29.50;;;13.25;;
31284;SDS011;56605;51.516;6.742;2023-02-15T12:47:18;22.85;;;13.07;;
31284;SDS011;56605;51.516;6.742;2023-02-15T12:49:44;26.73;;;12.98;;
31284;SDS011;56605;51.516;6.742;2023-02-15T12:54:45;23.40;;;12.23;;
31284;SDS011;56605;51.516;6.742;2023-02-15T12:57:21;23.23;;;12.77;;
31284;SDS011;56605;51.516;6.742;2023-02-15T12:59:50;20.40;;;11.85;;
31284;SDS011;56605;51.516;6.742;2023-02-15T13:02:23;22.98;;;12.23;;
31284;SDS011;56605;51.516;6.742;2023-02-15T13:04:50;35.03;;;15.40;;
31284;SDS011;56605;51.516;6.742;2023-02-15T13:07:15;33.13;;;15.48;;
31284;SDS011;56605;51.516;6.742;2023-02-15T13:09:43;42.50;;;15.88;;
31284;SDS011;56605;51.516;6.742;2023-02-15T13:12:10;48.28;;;17.20;;
31284;SDS011;56605;51.516;6.742;2023-02-15T13:14:36;35.97;;;14.63;;
31284;SDS011;56605;51.516;6.742;2023-02-15T13:17:03;35.17;;;15.30;;
31284;SDS011;56605;51.516;6.742;2023-02-15T13:19:36;38.97;;;14.65;;
31284;SDS011;56605;51.516;6.742;2023-02-15T13:22:03;34.72;;;14.80;;
31284;SDS011;56605;51.516;6.742;2023-02-15T13:24:32;28.08;;;12.98;;
31284;SDS011;56605;51.516;6.742;2023-02-15T13:26:58;31.10;;;14.05;;
31284;SDS011;56605;51.516;6.742;2023-02-15T13:29:25;26.05;;;12.98;;
31284;SDS011;56605;51.516;6.742;2023-02-15T13:31:51;29.75;;;14.02;;
31284;SDS011;56605;51.516;6.742;2023-02-15T13:34:22;26.85;;;13.73;;
31284;SDS011;56605;51.516;6.742;2023-02-15T13:36:51;46.90;;;15.38;;
31284;SDS011;56605;51.516;6.742;2023-02-15T13:50:28;34.05;;;15.43;;
31284;SDS011;56605;51.516;6.742;2023-02-15T13:55:36;39.00;;;15.40;;
31284;SDS011;56605;51.516;6.742;2023-02-15T14:00:33;29.92;;;14.68;;
31284;SDS011;56605;51.516;6.742;2023-02-15T14:03:16;34.00;;;14.05;;
31284;SDS011;56605;51.516;6.742;2023-02-15T14:06:05;40.80;;;14.15;;
31284;SDS011;56605;51.516;6.742;2023-02-15T14:08:39;36.38;;;16.55;;
31284;SDS011;56605;51.516;6.742;2023-02-15T14:19:09;30.73;;;13.23;;
31284;SDS011;56605;51.516;6.742;2023-02-15T14:26:47;28.23;;;12.82;;
31284;SDS011;56605;51.516;6.742;2023-02-15T14:29:26;27.45;;;12.27;;
31284;SDS011;56605;51.516;6.742;2023-02-15T14:31:57;26.15;;;12.77;;
31284;SDS011;56605;51.516;6.742;2023-02-15T14:34:34;35.17;;;11.93;;
31284;SDS011;56605;51.516;6.742;2023-02-15T14:37:01;30.65;;;13.65;;
31284;SDS011;56605;51.516;6.742;2023-02-15T14:39:32;29.23;;;13.40;;
31284;SDS011;56605;51.516;6.742;2023-02-15T14:42:29;30.27;;;13.02;;
31284;SDS011;56605;51.516;6.742;2023-02-15T14:45:04;28.65;;;13.55;;
31284;SDS011;56605;51.516;6.742;2023-02-15T14:47:32;27.90;;;12.20;;
31284;SDS011;56605;51.516;6.742;2023-02-15T14:49:58;30.67;;;13.30;;
31284;SDS011;56605;51.516;6.742;2023-02-15T14:52:23;31.20;;;12.17;;
31284;SDS011;56605;51.516;6.742;2023-02-15T15:05:34;22.77;;;11.98;;
31284;SDS011;56605;51.516;6.742;2023-02-15T15:07:38;30.50;;;13.27;;
31284;SDS011;56605;51.516;6.742;2023-02-15T15:10:33;29.30;;;12.65;;
31284;SDS011;56605;51.516;6.742;2023-02-15T15:12:52;29.25;;;13.55;;
31284;SDS011;56605;51.516;6.742;2023-02-15T15:28:02;34.73;;;13.17;;
31284;SDS011;56605;51.516;6.742;2023-02-15T15:45:35;42.10;;;14.27;;
31284;SDS011;56605;51.516;6.742;2023-02-15T15:50:40;35.85;;;13.20;;
31284;SDS011;56605;51.516;6.742;2023-02-15T15:53:06;28.40;;;12.88;;
31284;SDS011;56605;51.516;6.742;2023-02-15T15:55:31;24.10;;;11.38;;
31284;SDS011;56605;51.516;6.742;2023-02-15T15:57:59;29.83;;;13.02;;
31284;SDS011;56605;51.516;6.742;2023-02-15T16:00:42;30.80;;;12.38;;
31284;SDS011;56605;51.516;6.742;2023-02-15T16:03:22;27.70;;;13.05;;
31284;SDS011;56605;51.516;6.742;2023-02-15T16:05:48;32.20;;;16.63;;
31284;SDS011;56605;51.516;6.742;2023-02-15T16:08:38;36.97;;;17.77;;
31284;SDS011;56605;51.516;6.742;2023-02-15T16:11:14;26.80;;;13.32;;
31284;SDS011;56605;51.516;6.742;2023-02-15T16:13:41;28.15;;;13.02;;
31284;SDS011;56605;51.516;6.742;2023-02-15T16:16:07;26.38;;;12.75;;
31284;SDS011;56605;51.516;6.742;2023-02-15T16:18:32;32.67;;;13.10;;
31284;SDS011;56605;51.516;6.742;2023-02-15T16:20:58;33.70;;;12.30;;
31284;SDS011;56605;51.516;6.742;2023-02-15T16:28:29;22.67;;;12.35;;
31284;SDS011;56605;51.516;6.742;2023-02-15T16:31:03;29.73;;;13.30;;
31284;SDS011;56605;51.516;6.742;2023-02-15T16:33:34;28.17;;;12.48;;
31284;SDS011;56605;51.516;6.742;2023-02-15T16:36:00;26.55;;;14.05;;
31284;SDS011;56605;51.516;6.742;2023-02-15T16:41:13;33.63;;;15.15;;
31284;SDS011;56605;51.516;6.742;2023-02-15T16:43:40;29.48;;;14.38;;
31284;SDS011;56605;51.516;6.742;2023-02-15T16:46:10;33.28;;;14.60;;
31284;SDS011;56605;51.516;6.742;2023-02-15T16:48:39;39.90;;;16.15;;
31284;SDS011;56605;51.516;6.742;2023-02-15T16:51:05;34.20;;;14.75;;
31284;SDS011;56605;51.516;6.742;2023-02-15T16:53:30;31.52;;;14.75;;
31284;SDS011;56605;51.516;6.742;2023-02-15T16:55:59;35.38;;;15.00;;
31284;SDS011;56605;51.516;6.742;2023-02-15T16:58:27;28.88;;;14.63;;
31284;SDS011;56605;51.516;6.742;2023-02-15T17:00:59;27.13;;;13.55;;
31284;SDS011;56605;51.516;6.742;2023-02-15T17:03:25;37.33;;;15.48;;
31284;SDS011;56605;51.516;6.742;2023-02-15T17:05:51;32.65;;;14.98;;
31284;SDS011;56605;51.516;6.742;2023-02-15T17:08:18;34.10;;;15.35;;
31284;SDS011;56605;51.516;6.742;2023-02-15T17:11:00;33.67;;;14.85;;
31284;SDS011;56605;51.516;6.742;2023-02-15T17:13:27;31.42;;;14.10;;
31284;SDS011;56605;51.516;6.742;2023-02-15T17:18:18;29.90;;;13.20;;
31284;SDS011;56605;51.516;6.742;2023-02-15T17:20:44;30.83;;;14.95;;
31284;SDS011;56605;51.516;6.742;2023-02-15T17:23:29;30.00;;;14.23;;